Search for airport 
image banner adimage banner adimage banner ad
image banner ad

KHJO - Hanford Muni

Located in Hanford, United States

ICAO - HJO, IATA -

Data provided by Airmate  

General information

Coordinates: N36°19'0" W119°37'40"
Elevation is 240 feet MSL.
Magnetic variation is 14° East
View others Airports in California

Operational data

Special qualification required
Current time UTC:
Current local time:
Weather
METAR: KHJO 290853Z AUTO 00000KT 10SM CLR 26/16 A2990 RMK AO2 SLP123 T02560161 51002
View NOTAMs / SUP AIP / TFR affecting this airport [VIEW]
Communications frequencies: [VIEW]

Runways:

RWY identifierQFULength (ft)Width (ft)SurfaceLDA (ft)
14151°517975ASPH
32331°517975ASPH

Airport contact information

Address: Hanford United States

Satellite view of KHJO